sensor_id;sensor_type;location;lat;lon;timestamp;pressure;altitude;pressure_sealevel;temperature;humidity
75913;BME280;64592;52.168;21.040;2023-01-15T00:02:55;99840.56;;;5.04;71.75
75913;BME280;64592;52.168;21.040;2023-01-15T00:07:58;99828.38;;;5.00;71.85
75913;BME280;64592;52.168;21.040;2023-01-15T00:12:59;99803.56;;;4.98;71.99
75913;BME280;64592;52.168;21.040;2023-01-15T00:18:01;99806.53;;;4.93;72.63
75913;BME280;64592;52.168;21.040;2023-01-15T00:23:04;99792.31;;;4.93;72.71
75913;BME280;64592;52.168;21.040;2023-01-15T00:28:26;99778.41;;;5.02;71.85
75913;BME280;64592;52.168;21.040;2023-01-15T00:33:27;99776.66;;;5.01;72.17
75913;BME280;64592;52.168;21.040;2023-01-15T00:38:30;99758.53;;;4.92;72.12
75913;BME280;64592;52.168;21.040;2023-01-15T00:43:32;99763.09;;;5.04;70.85
75913;BME280;64592;52.168;21.040;2023-01-15T00:48:34;99760.81;;;4.98;71.79
75913;BME280;64592;52.168;21.040;2023-01-15T00:53:37;99745.75;;;4.97;72.18
75913;BME280;64592;52.168;21.040;2023-01-15T00:58:39;99740.22;;;5.00;70.37
75913;BME280;64592;52.168;21.040;2023-01-15T01:03:41;99735.94;;;4.97;71.11
75913;BME280;64592;52.168;21.040;2023-01-15T01:08:49;99728.03;;;4.96;70.99
75913;BME280;64592;52.168;21.040;2023-01-15T01:13:51;99708.97;;;4.88;71.15
75913;BME280;64592;52.168;21.040;2023-01-15T01:18:53;99719.81;;;4.85;71.44
75913;BME280;64592;52.168;21.040;2023-01-15T01:23:58;99734.81;;;4.87;70.30
75913;BME280;64592;52.168;21.040;2023-01-15T01:29:02;99715.03;;;4.76;70.83
75913;BME280;64592;52.168;21.040;2023-01-15T01:34:04;99706.38;;;4.72;71.97
75913;BME280;64592;52.168;21.040;2023-01-15T01:39:11;99712.19;;;4.64;71.45
75913;BME280;64592;52.168;21.040;2023-01-15T01:49:56;99703.41;;;4.62;72.16
75913;BME280;64592;52.168;21.040;2023-01-15T01:55:03;99680.56;;;4.58;71.68
75913;BME280;64592;52.168;21.040;2023-01-15T02:00:07;99668.91;;;4.59;71.87
75913;BME280;64592;52.168;21.040;2023-01-15T02:05:13;99640.13;;;4.50;72.05
75913;BME280;64592;52.168;21.040;2023-01-15T02:10:18;99642.81;;;4.50;72.18
75913;BME280;64592;52.168;21.040;2023-01-15T02:15:26;99637.84;;;4.44;71.78
75913;BME280;64592;52.168;21.040;2023-01-15T02:20:31;99634.50;;;4.41;72.38
75913;BME280;64592;52.168;21.040;2023-01-15T02:25:51;99631.91;;;4.39;73.01
75913;BME280;64592;52.168;21.040;2023-01-15T02:31:03;99644.69;;;4.34;72.42
75913;BME280;64592;52.168;21.040;2023-01-15T02:36:14;99640.69;;;4.41;71.60
75913;BME280;64592;52.168;21.040;2023-01-15T02:41:19;99629.47;;;4.36;71.44
75913;BME280;64592;52.168;21.040;2023-01-15T02:46:26;99622.78;;;4.43;71.53
75913;BME280;64592;52.168;21.040;2023-01-15T02:51:35;99612.13;;;4.43;71.76
75913;BME280;64592;52.168;21.040;2023-01-15T02:56:39;99600.13;;;4.36;71.86
75913;BME280;64592;52.168;21.040;2023-01-15T03:01:45;99575.16;;;4.37;72.35
75913;BME280;64592;52.168;21.040;2023-01-15T03:06:50;99555.50;;;4.38;72.28
75913;BME280;64592;52.168;21.040;2023-01-15T03:12:02;99557.03;;;4.42;71.42
75913;BME280;64592;52.168;21.040;2023-01-15T03:17:14;99548.28;;;4.26;72.11
75913;BME280;64592;52.168;21.040;2023-01-15T03:22:22;99543.50;;;4.31;72.11
75913;BME280;64592;52.168;21.040;2023-01-15T03:27:26;99534.53;;;4.32;71.07
75913;BME280;64592;52.168;21.040;2023-01-15T03:32:29;99537.81;;;4.37;71.80
75913;BME280;64592;52.168;21.040;2023-01-15T03:37:31;99525.78;;;4.30;71.34
75913;BME280;64592;52.168;21.040;2023-01-15T03:42:41;99522.38;;;4.28;71.36
75913;BME280;64592;52.168;21.040;2023-01-15T03:47:55;99497.41;;;4.29;71.35
75913;BME280;64592;52.168;21.040;2023-01-15T03:53:05;99492.94;;;4.29;71.48
75913;BME280;64592;52.168;21.040;2023-01-15T03:58:13;99479.47;;;4.31;71.68
75913;BME280;64592;52.168;21.040;2023-01-15T04:03:21;99480.16;;;4.35;71.02
75913;BME280;64592;52.168;21.040;2023-01-15T04:08:23;99463.47;;;4.31;71.44
75913;BME280;64592;52.168;21.040;2023-01-15T04:13:27;99465.69;;;4.24;71.68
75913;BME280;64592;52.168;21.040;2023-01-15T04:18:30;99464.72;;;4.25;71.41
75913;BME280;64592;52.168;21.040;2023-01-15T04:23:32;99464.81;;;4.24;71.66
75913;BME280;64592;52.168;21.040;2023-01-15T04:28:33;99433.09;;;4.34;70.69
75913;BME280;64592;52.168;21.040;2023-01-15T04:33:37;99421.28;;;4.23;71.95
75913;BME280;64592;52.168;21.040;2023-01-15T04:38:39;99387.06;;;4.30;71.09
75913;BME280;64592;52.168;21.040;2023-01-15T04:43:41;99393.25;;;4.30;71.30
75913;BME280;64592;52.168;21.040;2023-01-15T04:49:01;99395.28;;;4.27;71.08
75913;BME280;64592;52.168;21.040;2023-01-15T04:54:03;99406.91;;;4.26;71.34
75913;BME280;64592;52.168;21.040;2023-01-15T04:59:06;99389.63;;;4.32;71.26
75913;BME280;64592;52.168;21.040;2023-01-15T05:04:09;99396.59;;;4.34;71.17
75913;BME280;64592;52.168;21.040;2023-01-15T05:09:10;99374.03;;;4.25;71.06
75913;BME280;64592;52.168;21.040;2023-01-15T05:14:12;99375.44;;;4.31;70.95
75913;BME280;64592;52.168;21.040;2023-01-15T05:19:15;99366.19;;;4.37;70.29
75913;BME280;64592;52.168;21.040;2023-01-15T05:24:18;99360.56;;;4.41;69.92
75913;BME280;64592;52.168;21.040;2023-01-15T05:29:19;99345.19;;;4.45;70.13
75913;BME280;64592;52.168;21.040;2023-01-15T05:34:23;99372.19;;;4.53;69.34
75913;BME280;64592;52.168;21.040;2023-01-15T05:39:24;99358.22;;;4.49;69.85
75913;BME280;64592;52.168;21.040;2023-01-15T05:44:28;99355.16;;;4.55;69.03
75913;BME280;64592;52.168;21.040;2023-01-15T05:49:31;99368.59;;;4.54;68.76
75913;BME280;64592;52.168;21.040;2023-01-15T05:54:34;99374.50;;;4.59;68.92
75913;BME280;64592;52.168;21.040;2023-01-15T05:59:36;99356.78;;;4.71;68.84
75913;BME280;64592;52.168;21.040;2023-01-15T06:04:39;99335.00;;;4.77;68.12
75913;BME280;64592;52.168;21.040;2023-01-15T06:09:41;99343.25;;;4.74;68.42
75913;BME280;64592;52.168;21.040;2023-01-15T06:14:43;99333.53;;;4.73;68.57
75913;BME280;64592;52.168;21.040;2023-01-15T06:19:46;99321.88;;;4.74;67.56
75913;BME280;64592;52.168;21.040;2023-01-15T06:24:47;99303.94;;;4.76;67.83
75913;BME280;64592;52.168;21.040;2023-01-15T06:29:49;99306.16;;;4.82;68.00
75913;BME280;64592;52.168;21.040;2023-01-15T06:34:52;99286.84;;;4.91;66.93
75913;BME280;64592;52.168;21.040;2023-01-15T06:39:54;99296.06;;;4.87;67.03
75913;BME280;64592;52.168;21.040;2023-01-15T06:44:55;99312.50;;;4.93;67.95
75913;BME280;64592;52.168;21.040;2023-01-15T06:50:16;99314.84;;;4.85;68.00
75913;BME280;64592;52.168;21.040;2023-01-15T06:55:18;99296.25;;;4.84;68.49
75913;BME280;64592;52.168;21.040;2023-01-15T07:00:20;99296.81;;;4.89;69.06
75913;BME280;64592;52.168;21.040;2023-01-15T07:05:23;99292.63;;;4.97;68.50
75913;BME280;64592;52.168;21.040;2023-01-15T07:10:25;99290.38;;;4.91;69.94
75913;BME280;64592;52.168;21.040;2023-01-15T07:15:26;99274.78;;;4.85;71.51
75913;BME280;64592;52.168;21.040;2023-01-15T07:20:30;99284.19;;;4.91;71.79
75913;BME280;64592;52.168;21.040;2023-01-15T07:25:32;99296.25;;;4.84;72.96
75913;BME280;64592;52.168;21.040;2023-01-15T07:30:33;99281.41;;;4.80;73.54
75913;BME280;64592;52.168;21.040;2023-01-15T07:35:36;99275.13;;;4.81;74.12
75913;BME280;64592;52.168;21.040;2023-01-15T07:40:38;99258.88;;;4.84;74.35
75913;BME280;64592;52.168;21.040;2023-01-15T07:45:42;99278.75;;;4.80;74.69
75913;BME280;64592;52.168;21.040;2023-01-15T07:51:03;99257.91;;;4.85;75.06
75913;BME280;64592;52.168;21.040;2023-01-15T07:56:05;99264.00;;;4.87;75.47
75913;BME280;64592;52.168;21.040;2023-01-15T08:01:06;99254.19;;;4.87;74.50
75913;BME280;64592;52.168;21.040;2023-01-15T08:06:09;99259.44;;;4.89;74.94
75913;BME280;64592;52.168;21.040;2023-01-15T08:11:11;99255.03;;;4.88;74.87
75913;BME280;64592;52.168;21.040;2023-01-15T08:16:34;99253.13;;;5.02;73.78
75913;BME280;64592;52.168;21.040;2023-01-15T08:21:37;99247.63;;;5.04;74.52
75913;BME280;64592;52.168;21.040;2023-01-15T08:26:39;99245.72;;;5.06;74.44
75913;BME280;64592;52.168;21.040;2023-01-15T08:31:40;99238.13;;;5.13;73.81
75913;BME280;64592;52.168;21.040;2023-01-15T08:36:43;99243.47;;;5.13;75.15
75913;BME280;64592;52.168;21.040;2023-01-15T08:41:45;99232.47;;;5.17;74.75
75913;BME280;64592;52.168;21.040;2023-01-15T08:46:47;99233.34;;;5.18;75.56
75913;BME280;64592;52.168;21.040;2023-01-15T08:51:50;99229.25;;;5.25;74.89
75913;BME280;64592;52.168;21.040;2023-01-15T08:56:52;99223.66;;;5.28;75.45
75913;BME280;64592;52.168;21.040;2023-01-15T09:01:54;99227.19;;;5.28;75.04
75913;BME280;64592;52.168;21.040;2023-01-15T09:06:57;99232.94;;;5.35;75.92
75913;BME280;64592;52.168;21.040;2023-01-15T09:11:58;99224.09;;;5.34;75.70
75913;BME280;64592;52.168;21.040;2023-01-15T09:17:00;99218.53;;;5.37;75.71
75913;BME280;64592;52.168;21.040;2023-01-15T09:22:03;99223.53;;;5.42;75.76
75913;BME280;64592;52.168;21.040;2023-01-15T09:27:05;99207.63;;;5.40;75.94
75913;BME280;64592;52.168;21.040;2023-01-15T09:32:06;99214.66;;;5.41;77.01
75913;BME280;64592;52.168;21.040;2023-01-15T09:37:11;99206.63;;;5.41;76.83
75913;BME280;64592;52.168;21.040;2023-01-15T09:42:25;99202.56;;;5.48;76.28
75913;BME280;64592;52.168;21.040;2023-01-15T09:47:31;99205.69;;;5.42;76.89
75913;BME280;64592;52.168;21.040;2023-01-15T09:52:48;99188.94;;;5.40;77.88
75913;BME280;64592;52.168;21.040;2023-01-15T09:57:57;99196.66;;;5.32;79.15
75913;BME280;64592;52.168;21.040;2023-01-15T10:03:04;99181.13;;;5.37;78.28
75913;BME280;64592;52.168;21.040;2023-01-15T10:08:13;99179.13;;;5.28;79.14
75913;BME280;64592;52.168;21.040;2023-01-15T10:13:21;99178.78;;;5.33;80.17
75913;BME280;64592;52.168;21.040;2023-01-15T10:18:28;99174.53;;;5.30;80.34
75913;BME280;64592;52.168;21.040;2023-01-15T10:23:36;99166.84;;;5.26;80.59
75913;BME280;64592;52.168;21.040;2023-01-15T10:28:54;99166.84;;;5.26;80.57
75913;BME280;64592;52.168;21.040;2023-01-15T10:34:14;99151.78;;;5.25;81.34
75913;BME280;64592;52.168;21.040;2023-01-15T10:39:29;99153.91;;;5.32;81.26
75913;BME280;64592;52.168;21.040;2023-01-15T10:44:42;99142.47;;;5.30;80.90
75913;BME280;64592;52.168;21.040;2023-01-15T10:49:47;99134.09;;;5.35;81.12
75913;BME280;64592;52.168;21.040;2023-01-15T10:54:54;99132.81;;;5.40;80.81
75913;BME280;64592;52.168;21.040;2023-01-15T11:00:00;99124.38;;;5.34;81.78
75913;BME280;64592;52.168;21.040;2023-01-15T11:05:03;99135.19;;;5.32;82.18
75913;BME280;64592;52.168;21.040;2023-01-15T11:10:09;99118.19;;;5.33;81.97
75913;BME280;64592;52.168;21.040;2023-01-15T11:15:12;99118.50;;;5.29;82.93
75913;BME280;64592;52.168;21.040;2023-01-15T11:20:33;99112.66;;;5.24;83.29
75913;BME280;64592;52.168;21.040;2023-01-15T11:25:47;99107.94;;;5.27;83.58
75913;BME280;64592;52.168;21.040;2023-01-15T11:30:53;99099.78;;;5.18;84.59
75913;BME280;64592;52.168;21.040;2023-01-15T11:35:57;99111.41;;;5.17;83.54
75913;BME280;64592;52.168;21.040;2023-01-15T11:41:01;99103.28;;;5.18;84.35
75913;BME280;64592;52.168;21.040;2023-01-15T11:46:05;99100.94;;;5.14;83.81
75913;BME280;64592;52.168;21.040;2023-01-15T11:51:26;99089.59;;;5.23;83.87
75913;BME280;64592;52.168;21.040;2023-01-15T11:56:30;99087.28;;;5.18;84.81
75913;BME280;64592;52.168;21.040;2023-01-15T12:01:36;99078.50;;;5.16;85.30
75913;BME280;64592;52.168;21.040;2023-01-15T12:06:40;99090.91;;;5.17;84.58
75913;BME280;64592;52.168;21.040;2023-01-15T12:11:49;99074.25;;;5.14;84.98
75913;BME280;64592;52.168;21.040;2023-01-15T12:17:01;99069.28;;;5.20;84.78
75913;BME280;64592;52.168;21.040;2023-01-15T12:22:29;99067.38;;;5.22;84.25
75913;BME280;64592;52.168;21.040;2023-01-15T12:27:52;99067.38;;;5.22;84.03
75913;BME280;64592;52.168;21.040;2023-01-15T12:33:01;99063.94;;;5.20;84.21
75913;BME280;64592;52.168;21.040;2023-01-15T12:38:12;99075.47;;;5.21;84.66
75913;BME280;64592;52.168;21.040;2023-01-15T12:43:22;99061.16;;;5.22;84.29
75913;BME280;64592;52.168;21.040;2023-01-15T12:48:47;99082.19;;;5.26;83.67
75913;BME280;64592;52.168;21.040;2023-01-15T12:53:57;99073.97;;;5.29;84.49
75913;BME280;64592;52.168;21.040;2023-01-15T12:59:06;99070.44;;;5.29;84.35
75913;BME280;64592;52.168;21.040;2023-01-15T13:04:14;99074.06;;;5.28;83.28
75913;BME280;64592;52.168;21.040;2023-01-15T13:09:32;99077.13;;;5.34;83.12
75913;BME280;64592;52.168;21.040;2023-01-15T13:14:36;99079.47;;;5.39;82.03
75913;BME280;64592;52.168;21.040;2023-01-15T13:19:46;99079.88;;;5.45;82.36
75913;BME280;64592;52.168;21.040;2023-01-15T13:25:03;99077.19;;;5.45;82.89
75913;BME280;64592;52.168;21.040;2023-01-15T13:30:17;99074.53;;;5.45;82.23
75913;BME280;64592;52.168;21.040;2023-01-15T13:35:27;99073.94;;;5.53;82.45
75913;BME280;64592;52.168;21.040;2023-01-15T13:40:33;99068.50;;;5.55;81.80
75913;BME280;64592;52.168;21.040;2023-01-15T13:45:39;99079.28;;;5.53;81.86
75913;BME280;64592;52.168;21.040;2023-01-15T13:50:51;99081.84;;;5.55;81.94
75913;BME280;64592;52.168;21.040;2023-01-15T13:55:55;99078.06;;;5.57;81.39
75913;BME280;64592;52.168;21.040;2023-01-15T14:01:05;99076.16;;;5.59;80.56
75913;BME280;64592;52.168;21.040;2023-01-15T14:06:08;99074.59;;;5.68;80.76
75913;BME280;64592;52.168;21.040;2023-01-15T14:11:29;99086.75;;;5.72;80.21
75913;BME280;64592;52.168;21.040;2023-01-15T14:16:41;99090.91;;;5.76;79.86
75913;BME280;64592;52.168;21.040;2023-01-15T14:21:52;99092.09;;;5.72;78.82
75913;BME280;64592;52.168;21.040;2023-01-15T14:27:04;99088.56;;;5.71;79.12
75913;BME280;64592;52.168;21.040;2023-01-15T14:32:15;99111.44;;;5.75;78.08
75913;BME280;64592;52.168;21.040;2023-01-15T14:37:23;99106.47;;;5.82;77.19
75913;BME280;64592;52.168;21.040;2023-01-15T14:42:30;99111.84;;;5.82;78.12
75913;BME280;64592;52.168;21.040;2023-01-15T14:47:53;99110.53;;;5.88;77.19
75913;BME280;64592;52.168;21.040;2023-01-15T14:52:59;99109.34;;;5.92;77.06
75913;BME280;64592;52.168;21.040;2023-01-15T14:58:03;99109.22;;;5.93;77.22
75913;BME280;64592;52.168;21.040;2023-01-15T15:03:15;99104.13;;;6.01;76.14
75913;BME280;64592;52.168;21.040;2023-01-15T15:08:18;99091.22;;;5.95;76.09
75913;BME280;64592;52.168;21.040;2023-01-15T15:13:27;99095.13;;;6.02;75.91
75913;BME280;64592;52.168;21.040;2023-01-15T15:18:34;99073.75;;;6.02;75.57
75913;BME280;64592;52.168;21.040;2023-01-15T15:23:42;99092.25;;;6.05;75.61
75913;BME280;64592;52.168;21.040;2023-01-15T15:28:54;99084.97;;;6.07;75.11
75913;BME280;64592;52.168;21.040;2023-01-15T15:33:58;99080.56;;;6.06;75.34
75913;BME280;64592;52.168;21.040;2023-01-15T15:39:03;99090.91;;;6.11;74.52
75913;BME280;64592;52.168;21.040;2023-01-15T15:44:12;99078.59;;;6.08;74.47
75913;BME280;64592;52.168;21.040;2023-01-15T15:49:43;99081.53;;;6.16;73.49
75913;BME280;64592;52.168;21.040;2023-01-15T15:54:44;99078.63;;;6.19;73.01
75913;BME280;64592;52.168;21.040;2023-01-15T15:59:58;99066.00;;;6.21;73.41
75913;BME280;64592;52.168;21.040;2023-01-15T16:05:14;99080.84;;;6.26;74.70
75913;BME280;64592;52.168;21.040;2023-01-15T16:10:24;99085.81;;;6.30;73.03
75913;BME280;64592;52.168;21.040;2023-01-15T16:15:27;99091.78;;;6.34;73.70
75913;BME280;64592;52.168;21.040;2023-01-15T16:20:32;99087.88;;;6.38;72.33
75913;BME280;64592;52.168;21.040;2023-01-15T16:25:36;99102.63;;;6.43;72.04
75913;BME280;64592;52.168;21.040;2023-01-15T16:30:41;99097.13;;;6.45;72.86
75913;BME280;64592;52.168;21.040;2023-01-15T16:35:44;99094.13;;;6.49;73.11
75913;BME280;64592;52.168;21.040;2023-01-15T16:40:46;99112.13;;;6.47;73.63
75913;BME280;64592;52.168;21.040;2023-01-15T16:46:00;99111.53;;;6.44;74.07
75913;BME280;64592;52.168;21.040;2023-01-15T16:51:26;99119.03;;;6.39;75.92
75913;BME280;64592;52.168;21.040;2023-01-15T16:56:49;99140.81;;;6.34;78.31
75913;BME280;64592;52.168;21.040;2023-01-15T17:01:52;99137.75;;;6.28;80.35
75913;BME280;64592;52.168;21.040;2023-01-15T17:06:59;99139.31;;;6.19;82.72
75913;BME280;64592;52.168;21.040;2023-01-15T17:12:06;99150.63;;;6.11;83.63
75913;BME280;64592;52.168;21.040;2023-01-15T17:17:16;99163.50;;;6.06;84.38
75913;BME280;64592;52.168;21.040;2023-01-15T17:22:25;99158.94;;;5.96;86.39
75913;BME280;64592;52.168;21.040;2023-01-15T17:27:29;99162.94;;;5.90;86.12
75913;BME280;64592;52.168;21.040;2023-01-15T17:32:32;99162.41;;;5.85;86.59
75913;BME280;64592;52.168;21.040;2023-01-15T17:37:36;99175.16;;;5.81;86.34
75913;BME280;64592;52.168;21.040;2023-01-15T17:42:38;99183.28;;;5.80;86.17
75913;BME280;64592;52.168;21.040;2023-01-15T17:47:40;99188.97;;;5.75;86.43
75913;BME280;64592;52.168;21.040;2023-01-15T17:52:43;99205.25;;;5.72;86.85
75913;BME280;64592;52.168;21.040;2023-01-15T17:57:45;99223.25;;;5.70;87.67
75913;BME280;64592;52.168;21.040;2023-01-15T18:03:04;99230.50;;;5.68;88.43
75913;BME280;64592;52.168;21.040;2023-01-15T18:08:25;99238.84;;;5.64;88.35
75913;BME280;64592;52.168;21.040;2023-01-15T18:13:26;99243.69;;;5.59;88.29
75913;BME280;64592;52.168;21.040;2023-01-15T18:18:28;99250.00;;;5.58;89.80
75913;BME280;64592;52.168;21.040;2023-01-15T18:23:31;99245.84;;;5.54;89.18
75913;BME280;64592;52.168;21.040;2023-01-15T18:28:38;99245.31;;;5.48;90.69
75913;BME280;64592;52.168;21.040;2023-01-15T18:33:40;99263.06;;;5.50;90.15
75913;BME280;64592;52.168;21.040;2023-01-15T18:38:43;99249.84;;;5.48;89.91
75913;BME280;64592;52.168;21.040;2023-01-15T18:43:46;99248.13;;;5.47;89.90
75913;BME280;64592;52.168;21.040;2023-01-15T18:49:05;99263.31;;;5.46;90.31
75913;BME280;64592;52.168;21.040;2023-01-15T18:54:08;99257.94;;;5.46;91.19
75913;BME280;64592;52.168;21.040;2023-01-15T18:59:12;99269.38;;;5.48;89.54
75913;BME280;64592;52.168;21.040;2023-01-15T19:04:15;99271.22;;;5.48;89.63
75913;BME280;64592;52.168;21.040;2023-01-15T19:09:19;99290.13;;;5.45;90.28
75913;BME280;64592;52.168;21.040;2023-01-15T19:14:23;99273.34;;;5.43;89.00
75913;BME280;64592;52.168;21.040;2023-01-15T19:19:42;99278.28;;;5.36;89.82
75913;BME280;64592;52.168;21.040;2023-01-15T19:24:46;99279.56;;;5.31;89.79
75913;BME280;64592;52.168;21.040;2023-01-15T19:29:47;99300.09;;;5.30;87.77
75913;BME280;64592;52.168;21.040;2023-01-15T19:34:49;99287.91;;;5.26;87.75
75913;BME280;64592;52.168;21.040;2023-01-15T19:39:53;99291.75;;;5.22;86.84
75913;BME280;64592;52.168;21.040;2023-01-15T19:44:55;99286.84;;;5.16;87.49
75913;BME280;64592;52.168;21.040;2023-01-15T19:50:16;99307.72;;;5.11;87.22
75913;BME280;64592;52.168;21.040;2023-01-15T19:55:22;99304.72;;;5.03;87.52
75913;BME280;64592;52.168;21.040;2023-01-15T20:00:25;99311.31;;;4.97;87.84
75913;BME280;64592;52.168;21.040;2023-01-15T20:05:28;99317.63;;;4.96;88.50
75913;BME280;64592;52.168;21.040;2023-01-15T20:10:32;99329.28;;;4.95;89.06
75913;BME280;64592;52.168;21.040;2023-01-15T20:15:37;99321.38;;;4.94;89.09
75913;BME280;64592;52.168;21.040;2023-01-15T20:20:39;99303.63;;;4.93;90.00
75913;BME280;64592;52.168;21.040;2023-01-15T20:25:42;99306.41;;;4.91;90.21
75913;BME280;64592;52.168;21.040;2023-01-15T20:30:51;99315.16;;;4.93;90.77
75913;BME280;64592;52.168;21.040;2023-01-15T20:35:55;99320.41;;;4.95;90.89
75913;BME280;64592;52.168;21.040;2023-01-15T20:41:04;99323.06;;;4.95;91.39
75913;BME280;64592;52.168;21.040;2023-01-15T20:46:20;99318.47;;;4.97;90.55
75913;BME280;64592;52.168;21.040;2023-01-15T20:51:22;99316.66;;;4.97;91.06
75913;BME280;64592;52.168;21.040;2023-01-15T20:56:25;99314.84;;;4.98;91.28
75913;BME280;64592;52.168;21.040;2023-01-15T21:01:27;99332.69;;;4.97;91.36
75913;BME280;64592;52.168;21.040;2023-01-15T21:06:28;99326.38;;;4.98;89.88
75913;BME280;64592;52.168;21.040;2023-01-15T21:11:31;99328.19;;;4.98;88.54
75913;BME280;64592;52.168;21.040;2023-01-15T21:16:33;99336.19;;;4.98;88.30
75913;BME280;64592;52.168;21.040;2023-01-15T21:21:35;99334.50;;;4.97;88.37
75913;BME280;64592;52.168;21.040;2023-01-15T21:26:39;99338.88;;;4.98;87.50
75913;BME280;64592;52.168;21.040;2023-01-15T21:31:42;99337.16;;;4.97;87.41
75913;BME280;64592;52.168;21.040;2023-01-15T21:36:43;99327.47;;;4.96;86.15
75913;BME280;64592;52.168;21.040;2023-01-15T21:41:47;99329.91;;;4.99;85.67
75913;BME280;64592;52.168;21.040;2023-01-15T21:47:07;99327.22;;;4.99;86.40
75913;BME280;64592;52.168;21.040;2023-01-15T21:52:11;99342.63;;;4.95;85.49
75913;BME280;64592;52.168;21.040;2023-01-15T21:57:14;99333.00;;;4.93;86.34
75913;BME280;64592;52.168;21.040;2023-01-15T22:02:18;99342.94;;;4.91;86.11
75913;BME280;64592;52.168;21.040;2023-01-15T22:07:21;99337.50;;;4.92;85.64
75913;BME280;64592;52.168;21.040;2023-01-15T22:12:24;99336.63;;;4.92;85.36
75913;BME280;64592;52.168;21.040;2023-01-15T22:17:25;99351.16;;;4.88;85.07
75913;BME280;64592;52.168;21.040;2023-01-15T22:22:27;99343.16;;;4.88;84.74
75913;BME280;64592;52.168;21.040;2023-01-15T22:27:34;99348.69;;;4.85;84.54
75913;BME280;64592;52.168;21.040;2023-01-15T22:32:40;99338.78;;;4.87;83.56
75913;BME280;64592;52.168;21.040;2023-01-15T22:37:41;99332.78;;;4.83;84.65
75913;BME280;64592;52.168;21.040;2023-01-15T22:42:44;99337.25;;;4.83;83.91
75913;BME280;64592;52.168;21.040;2023-01-15T22:47:46;99328.53;;;4.81;84.31
75913;BME280;64592;52.168;21.040;2023-01-15T22:52:48;99339.91;;;4.83;83.82
75913;BME280;64592;52.168;21.040;2023-01-15T22:57:51;99335.53;;;4.82;84.53
75913;BME280;64592;52.168;21.040;2023-01-15T23:02:52;99341.97;;;4.79;84.07
75913;BME280;64592;52.168;21.040;2023-01-15T23:08:04;99332.25;;;4.78;83.94
75913;BME280;64592;52.168;21.040;2023-01-15T23:13:07;99318.03;;;4.78;83.63
75913;BME280;64592;52.168;21.040;2023-01-15T23:18:09;99328.91;;;4.75;83.06
75913;BME280;64592;52.168;21.040;2023-01-15T23:23:11;99332.56;;;4.74;83.08
75913;BME280;64592;52.168;21.040;2023-01-15T23:28:14;99336.81;;;4.76;83.24
75913;BME280;64592;52.168;21.040;2023-01-15T23:33:17;99327.94;;;4.76;83.48
75913;BME280;64592;52.168;21.040;2023-01-15T23:38:19;99326.56;;;4.70;83.43
75913;BME280;64592;52.168;21.040;2023-01-15T23:43:22;99313.53;;;4.65;84.31
75913;BME280;64592;52.168;21.040;2023-01-15T23:48:42;99309.78;;;4.68;84.22
75913;BME280;64592;52.168;21.040;2023-01-15T23:53:43;99316.22;;;4.65;84.62
75913;BME280;64592;52.168;21.040;2023-01-15T23:58:48;99323.56;;;4.62;84.72
